Time;durP1;ratioP1;P1;durP2;ratioP2;P2;SDS_P1;SDS_P2;PMS_P1;PMS_P2;Temp;Humidity;BMP_temperature;BMP_pressure;BME280_temperature;BME280_humidity;BME280_pressure;Samples;Min_cycle;Max_cycle;Signal;HPM_P1;HPM_P2
2021/07/21 00:00:36;;;;;;;5.20;4.90;;;24.60;69.30;;;;;;5064391;28;20119;-27
2021/07/21 00:03:01;;;;;;;5.50;5.20;;;24.70;68.90;;;;;;5064228;28;20190;-30
2021/07/21 00:05:27;;;;;;;5.45;4.97;;;24.60;69.00;;;;;;5066286;28;20591;-34
2021/07/21 00:07:56;;;;;;;5.25;4.85;;;24.60;69.00;;;;;;5061040;28;20021;-26
2021/07/21 00:10:23;;;;;;;5.50;5.00;;;24.60;68.90;;;;;;5060866;28;20598;-24
2021/07/21 00:15:36;;;;;;;5.45;4.95;;;24.60;69.10;;;;;;5064056;28;20523;-25
2021/07/21 00:18:16;;;;;;;4.60;4.30;;;24.50;69.20;;;;;;5059217;28;20039;-23
2021/07/21 00:20:41;;;;;;;4.75;4.50;;;24.50;69.10;;;;;;5067832;28;20124;-27
2021/07/21 00:23:07;;;;;;;5.25;4.80;;;24.50;69.10;;;;;;5061027;28;20033;-25
2021/07/21 00:25:32;;;;;;;5.30;4.80;;;24.50;68.90;;;;;;5066577;28;20042;-25
2021/07/21 00:27:58;;;;;;;4.80;4.32;;;24.50;69.00;;;;;;5062824;28;20033;-24
2021/07/21 00:30:24;;;;;;;4.65;4.35;;;24.50;69.50;;;;;;5062389;28;20067;-30
2021/07/21 00:32:49;;;;;;;5.05;4.40;;;24.50;69.30;;;;;;5047023;28;20042;-28
2021/07/21 00:35:17;;;;;;;5.45;5.05;;;24.50;69.30;;;;;;5061790;28;20036;-26
2021/07/21 00:37:43;;;;;;;6.30;5.45;;;24.40;69.30;;;;;;5062320;28;20032;-28
2021/07/21 00:40:11;;;;;;;5.13;4.70;;;24.40;69.20;;;;;;5060420;28;20502;-27
2021/07/21 00:42:36;;;;;;;5.20;4.80;;;24.40;69.30;;;;;;5059953;28;20056;-28
2021/07/21 00:45:03;;;;;;;5.38;5.07;;;24.40;69.40;;;;;;5067947;28;20927;-23
2021/07/21 00:47:28;;;;;;;4.90;4.60;;;24.40;69.40;;;;;;5062390;28;20036;-36
2021/07/21 00:49:54;;;;;;;4.13;3.92;;;24.40;69.40;;;;;;5063327;28;20197;-26
2021/07/21 00:52:19;;;;;;;4.80;4.35;;;24.40;69.40;;;;;;5067017;28;20067;-25
2021/07/21 00:54:45;;;;;;;5.22;4.82;;;24.30;69.40;;;;;;5067120;28;20428;-24
2021/07/21 00:57:11;;;;;;;5.25;4.90;;;24.30;70.10;;;;;;5042730;28;20484;-28
2021/07/21 00:59:37;;;;;;;4.68;4.38;;;24.40;69.40;;;;;;5027689;28;20032;-26
2021/07/21 01:02:03;;;;;;;4.82;4.43;;;24.30;69.70;;;;;;5061062;28;20416;-27
2021/07/21 01:04:32;;;;;;;5.15;4.70;;;24.30;69.80;;;;;;5060990;28;20044;-28
2021/07/21 01:07:00;;;;;;;5.00;4.70;;;24.30;69.60;;;;;;5062346;28;20029;-27
2021/07/21 01:09:26;;;;;;;5.63;5.13;;;24.30;69.70;;;;;;5066121;28;20050;-25
2021/07/21 01:11:55;;;;;;;4.45;4.10;;;24.30;69.50;;;;;;5045333;28;20044;-24
2021/07/21 01:14:43;;;;;;;5.30;4.90;;;24.30;69.60;;;;;;5065498;28;20033;-27
2021/07/21 01:17:11;;;;;;;4.70;4.40;;;24.20;69.60;;;;;;5038600;28;20028;-31
2021/07/21 01:19:40;;;;;;;4.63;4.22;;;24.20;69.70;;;;;;5044348;28;20054;-23
2021/07/21 01:22:44;;;;;;;5.35;4.85;;;24.20;69.60;;;;;;5065309;28;20131;-27
2021/07/21 01:25:18;;;;;;;4.55;4.20;;;24.20;69.70;;;;;;4994528;28;20577;-38
2021/07/21 01:28:01;;;;;;;5.43;4.25;;;24.20;69.80;;;;;;5000802;28;20052;-30
2021/07/21 01:30:31;;;;;;;4.75;4.45;;;24.20;69.70;;;;;;5003664;28;20041;-27
2021/07/21 01:33:17;;;;;;;4.63;4.25;;;24.10;69.50;;;;;;4969187;28;20052;-29
2021/07/21 01:35:56;;;;;;;4.70;4.30;;;24.10;69.80;;;;;;4986686;28;20042;-26
2021/07/21 01:38:24;;;;;;;4.85;4.53;;;24.10;69.70;;;;;;4986407;28;20088;-32
2021/07/21 01:41:02;;;;;;;4.57;4.28;;;24.10;69.80;;;;;;5001676;28;20092;-27
2021/07/21 01:43:29;;;;;;;4.97;4.32;;;24.10;69.80;;;;;;4975072;28;20088;-30
2021/07/21 01:45:55;;;;;;;4.82;4.43;;;24.10;69.70;;;;;;4983648;28;20763;-25
2021/07/21 01:48:21;;;;;;;5.20;4.90;;;24.10;69.80;;;;;;4984959;28;20569;-29
2021/07/21 01:50:48;;;;;;;5.57;4.45;;;24.00;70.00;;;;;;4987654;28;20049;-32
2021/07/21 01:53:13;;;;;;;5.13;4.22;;;24.00;70.00;;;;;;4985942;28;20568;-28
2021/07/21 01:55:39;;;;;;;5.15;4.57;;;24.00;69.50;;;;;;4985605;28;20033;-31
2021/07/21 01:58:05;;;;;;;4.53;4.20;;;24.10;69.30;;;;;;4986011;28;20052;-25
2021/07/21 02:00:32;;;;;;;8.15;4.80;;;24.10;69.40;;;;;;5047622;28;20523;-26
2021/07/21 02:02:59;;;;;;;4.97;4.45;;;24.00;69.40;;;;;;5065857;28;20416;-28
2021/07/21 02:05:24;;;;;;;4.63;4.15;;;24.00;69.30;;;;;;5064056;28;20048;-27
2021/07/21 02:07:52;;;;;;;5.03;4.30;;;24.00;69.70;;;;;;5026691;28;20032;-31
2021/07/21 02:10:20;;;;;;;5.03;4.60;;;23.90;69.80;;;;;;5046834;28;20038;-25
2021/07/21 02:12:47;;;;;;;4.32;4.03;;;23.90;69.90;;;;;;5065458;28;20028;-29
2021/07/21 02:15:14;;;;;;;5.47;4.88;;;23.90;69.60;;;;;;5044472;28;20409;-39
2021/07/21 02:17:40;;;;;;;5.18;4.20;;;23.90;69.70;;;;;;5061841;28;20485;-27
2021/07/21 02:20:08;;;;;;;4.35;4.05;;;23.80;69.80;;;;;;5043055;28;20126;-27
2021/07/21 02:22:34;;;;;;;4.10;3.70;;;23.80;69.80;;;;;;5047210;28;20028;-26
2021/07/21 02:24:59;;;;;;;4.32;4.03;;;23.80;69.90;;;;;;5066164;28;20055;-33
2021/07/21 02:27:25;;;;;;;3.83;3.53;;;23.80;69.90;;;;;;5064301;28;20035;-27
2021/07/21 02:29:51;;;;;;;3.90;3.70;;;23.70;70.00;;;;;;5066320;28;21342;-30
2021/07/21 02:32:36;;;;;;;4.53;3.95;;;23.70;70.00;;;;;;5066409;28;20103;-27
2021/07/21 02:35:02;;;;;;;4.85;4.00;;;23.70;69.70;;;;;;5065608;28;20064;-29
2021/07/21 02:37:29;;;;;;;5.25;4.75;;;23.70;69.80;;;;;;5057512;28;20185;-38
2021/07/21 02:39:54;;;;;;;4.97;4.68;;;23.70;69.80;;;;;;5062980;28;20044;-33
2021/07/21 02:42:20;;;;;;;4.80;4.50;;;23.70;69.80;;;;;;5068196;28;20036;-27
2021/07/21 02:44:47;;;;;;;4.53;4.22;;;23.70;70.00;;;;;;5066020;28;20111;-26
2021/07/21 02:47:13;;;;;;;5.18;4.63;;;23.70;69.80;;;;;;5061517;28;20029;-24
2021/07/21 02:49:40;;;;;;;4.13;3.92;;;23.70;70.70;;;;;;5061496;28;20041;-27
2021/07/21 02:52:13;;;;;;;4.63;4.32;;;23.60;69.90;;;;;;5064696;28;20032;-27
2021/07/21 02:55:17;;;;;;;4.53;4.20;;;23.60;69.80;;;;;;5064390;28;20114;-33
2021/07/21 02:57:54;;;;;;;4.60;4.30;;;23.70;69.90;;;;;;5058485;28;20052;-31
2021/07/21 03:00:21;;;;;;;4.10;3.80;;;23.60;69.80;;;;;;5048096;28;20032;-39
2021/07/21 03:02:49;;;;;;;4.07;3.72;;;23.60;69.80;;;;;;5064841;28;20569;-33
2021/07/21 03:05:16;;;;;;;4.13;3.83;;;23.60;70.20;;;;;;5042373;28;20032;-30
2021/07/21 03:07:47;;;;;;;4.38;4.13;;;23.60;70.20;;;;;;5061179;28;20036;-39
2021/07/21 03:10:13;;;;;;;3.88;3.67;;;23.60;70.00;;;;;;5047547;28;20024;-28
2021/07/21 03:12:40;;;;;;;4.10;3.72;;;23.60;70.00;;;;;;5046264;28;20807;-30
2021/07/21 03:15:07;;;;;;;4.65;4.25;;;23.50;69.80;;;;;;5064672;28;20832;-25
2021/07/21 03:17:36;;;;;;;4.15;3.85;;;23.60;69.70;;;;;;5059134;28;20036;-39
2021/07/21 03:20:02;;;;;;;5.05;4.25;;;23.50;69.60;;;;;;5042536;28;20039;-28
2021/07/21 03:22:27;;;;;;;4.10;3.80;;;23.50;69.70;;;;;;5063527;28;20032;-31
2021/07/21 03:24:53;;;;;;;6.22;4.22;;;23.50;69.90;;;;;;5049589;28;20055;-29
2021/07/21 03:27:19;;;;;;;4.00;3.70;;;23.50;69.80;;;;;;5046834;28;20035;-34
2021/07/21 03:29:45;;;;;;;4.03;3.75;;;23.50;69.70;;;;;;5046031;28;20032;-29
2021/07/21 03:32:11;;;;;;;4.45;4.05;;;23.50;69.80;;;;;;5028062;28;20071;-25
2021/07/21 03:34:36;;;;;;;4.90;4.15;;;23.40;69.70;;;;;;5048429;28;20121;-30
2021/07/21 03:37:03;;;;;;;5.38;4.05;;;23.50;69.60;;;;;;5045429;28;20047;-33
2021/07/21 03:39:28;;;;;;;4.40;3.75;;;23.40;69.80;;;;;;5069577;28;20040;-31
2021/07/21 03:41:54;;;;;;;4.03;3.72;;;23.40;69.70;;;;;;5045337;28;20031;-34
2021/07/21 03:44:21;;;;;;;5.00;4.50;;;23.40;69.80;;;;;;5047339;28;20032;-28
2021/07/21 03:46:47;;;;;;;4.32;4.03;;;23.40;69.80;;;;;;5030860;28;20417;-28
2021/07/21 03:49:14;;;;;;;4.20;3.95;;;23.40;69.80;;;;;;5066610;28;20047;-37
2021/07/21 03:51:39;;;;;;;4.18;3.78;;;23.30;69.90;;;;;;5046373;28;21256;-31
2021/07/21 03:54:07;;;;;;;4.55;4.10;;;23.30;69.80;;;;;;5046714;28;20729;-27
2021/07/21 03:56:32;;;;;;;4.20;3.90;;;23.30;69.70;;;;;;5060137;28;20021;-41
2021/07/21 03:59:00;;;;;;;4.05;3.85;;;23.30;69.80;;;;;;5044386;28;20105;-27
2021/07/21 04:01:25;;;;;;;4.40;4.03;;;23.30;70.00;;;;;;5029899;28;20719;-24
2021/07/21 04:03:51;;;;;;;4.35;3.88;;;23.30;70.10;;;;;;5047851;28;20059;-30
2021/07/21 04:06:17;;;;;;;5.00;4.40;;;23.40;69.70;;;;;;5042540;28;20033;-27
2021/07/21 04:08:43;;;;;;;4.20;3.90;;;23.30;69.70;;;;;;5030043;28;20033;-26
2021/07/21 04:11:12;;;;;;;4.05;3.75;;;23.30;69.50;;;;;;5028818;28;20068;-28
2021/07/21 04:13:38;;;;;;;4.47;4.18;;;23.30;70.10;;;;;;5044879;28;20385;-27
2021/07/21 04:16:05;;;;;;;4.40;4.00;;;23.30;69.50;;;;;;5042412;28;20044;-32
2021/07/21 04:18:30;;;;;;;4.32;3.92;;;23.20;69.50;;;;;;5024850;28;20028;-25
2021/07/21 04:20:56;;;;;;;4.28;3.88;;;23.30;69.30;;;;;;5023242;28;20040;-30
2021/07/21 04:23:21;;;;;;;5.70;4.32;;;23.10;69.30;;;;;;5028593;28;20492;-33
2021/07/21 04:25:48;;;;;;;5.10;4.00;;;23.20;69.30;;;;;;5044845;28;20113;-30
2021/07/21 04:28:14;;;;;;;4.40;4.10;;;23.20;69.30;;;;;;5009826;28;20052;-25
2021/07/21 04:30:39;;;;;;;4.07;3.78;;;23.20;69.20;;;;;;5039583;28;20104;-30
2021/07/21 04:33:05;;;;;;;4.47;4.18;;;23.20;69.20;;;;;;5023821;28;20037;-33
2021/07/21 04:35:31;;;;;;;4.20;3.88;;;23.30;69.30;;;;;;5029612;28;20036;-30
2021/07/21 04:37:56;;;;;;;4.60;4.15;;;23.30;69.30;;;;;;5056122;28;20039;-33
2021/07/21 04:40:22;;;;;;;4.65;4.35;;;23.20;69.10;;;;;;5028438;28;20032;-33
2021/07/21 04:42:48;;;;;;;4.70;4.28;;;23.10;69.40;;;;;;5044655;28;20020;-33
2021/07/21 04:45:15;;;;;;;4.57;4.20;;;23.10;69.30;;;;;;5056816;28;20051;-31
2021/07/21 04:47:40;;;;;;;4.40;4.00;;;23.10;69.70;;;;;;5060001;28;20119;-28
2021/07/21 04:50:11;;;;;;;4.28;3.90;;;23.50;69.70;;;;;;5044098;28;20050;-28
2021/07/21 04:52:37;;;;;;;4.88;4.57;;;23.70;68.70;;;;;;5027065;28;20036;-27
2021/07/21 04:55:04;;;;;;;7.22;4.90;;;23.60;68.80;;;;;;5036515;28;20036;-26
2021/07/21 04:57:29;;;;;;;4.60;4.30;;;23.40;69.20;;;;;;5072081;28;20108;-30
2021/07/21 04:59:55;;;;;;;5.38;4.68;;;23.30;69.40;;;;;;5071957;28;20149;-27
2021/07/21 05:02:20;;;;;;;5.40;4.90;;;23.40;69.20;;;;;;5069075;28;20028;-29
2021/07/21 05:04:46;;;;;;;5.82;5.32;;;23.30;69.10;;;;;;5059519;28;20047;-28
2021/07/21 05:07:13;;;;;;;6.15;5.05;;;23.30;69.30;;;;;;5036749;28;20705;-25
2021/07/21 05:09:39;;;;;;;6.70;5.68;;;23.40;69.10;;;;;;5080077;28;20134;-24
2021/07/21 05:12:05;;;;;;;6.60;4.93;;;23.30;69.20;;;;;;5076185;28;20048;-27
2021/07/21 05:14:30;;;;;;;4.95;4.47;;;23.40;69.00;;;;;;5078491;28;20028;-32
2021/07/21 05:16:56;;;;;;;4.70;4.35;;;23.40;68.90;;;;;;5079744;28;20501;-25
2021/07/21 05:19:21;;;;;;;5.28;4.93;;;23.40;69.10;;;;;;5073028;28;20032;-26
2021/07/21 05:21:47;;;;;;;7.18;4.72;;;23.40;69.80;;;;;;5074160;28;20550;-28
2021/07/21 05:24:12;;;;;;;6.70;5.30;;;23.30;68.80;;;;;;5079085;28;20044;-26
2021/07/21 05:26:41;;;;;;;5.38;4.60;;;23.20;69.60;;;;;;5071991;28;20009;-27
2021/07/21 05:29:06;;;;;;;5.13;4.72;;;23.30;69.20;;;;;;5074191;28;20043;-26
2021/07/21 05:31:32;;;;;;;5.95;5.30;;;23.30;69.30;;;;;;5073825;28;20027;-31
2021/07/21 05:33:58;;;;;;;5.75;5.25;;;23.30;69.30;;;;;;5076317;28;20021;-28
2021/07/21 05:36:23;;;;;;;5.50;4.95;;;23.20;69.60;;;;;;5071718;28;20089;-29
2021/07/21 05:38:49;;;;;;;7.72;5.70;;;23.30;69.60;;;;;;5074877;28;20397;-29
2021/07/21 05:41:16;;;;;;;7.40;5.30;;;23.20;70.10;;;;;;5076096;28;20032;-26
2021/07/21 05:43:41;;;;;;;5.72;5.32;;;23.20;70.00;;;;;;5073200;28;20410;-31
2021/07/21 05:46:07;;;;;;;5.68;5.28;;;23.20;69.90;;;;;;5071882;28;20040;-31
2021/07/21 05:48:32;;;;;;;6.10;5.55;;;23.40;69.60;;;;;;5073970;28;20016;-27
2021/07/21 05:50:58;;;;;;;6.22;5.63;;;23.40;69.50;;;;;;5073903;28;20040;-27
2021/07/21 05:53:23;;;;;;;6.55;5.50;;;23.20;70.20;;;;;;5076153;28;20016;-33
2021/07/21 05:55:49;;;;;;;5.30;4.90;;;23.30;70.00;;;;;;5071099;28;20094;-24
2021/07/21 05:58:15;;;;;;;8.27;5.57;;;23.30;69.90;;;;;;5072679;28;20127;-37
2021/07/21 06:00:41;;;;;;;8.90;6.00;;;23.30;70.30;;;;;;5070199;28;20124;-29
2021/07/21 06:03:07;;;;;;;5.88;5.28;;;23.30;69.70;;;;;;5070695;28;20778;-30
2021/07/21 06:05:33;;;;;;;6.38;4.78;;;23.40;69.70;;;;;;5071643;28;20073;-26
2021/07/21 06:07:58;;;;;;;5.07;4.57;;;23.40;70.00;;;;;;5069483;28;20063;-28
2021/07/21 06:10:24;;;;;;;7.53;5.22;;;23.20;70.50;;;;;;5075929;28;20036;-24
2021/07/21 06:12:50;;;;;;;6.05;5.53;;;23.30;70.40;;;;;;5065728;28;20432;-24
2021/07/21 06:15:16;;;;;;;6.40;5.43;;;23.50;69.60;;;;;;5079513;28;20060;-31
2021/07/21 06:17:43;;;;;;;6.88;5.93;;;23.50;69.40;;;;;;5055894;28;20522;-34
2021/07/21 06:20:09;;;;;;;8.63;5.60;;;23.50;69.40;;;;;;5075952;28;20042;-28
2021/07/21 06:22:39;;;;;;;7.03;5.20;;;23.50;69.60;;;;;;5058495;28;20028;-30
2021/07/21 06:25:06;;;;;;;5.63;5.13;;;23.60;69.40;;;;;;5072994;28;20045;-32
2021/07/21 06:27:32;;;;;;;7.90;5.80;;;23.50;69.70;;;;;;5074945;28;20444;-28
2021/07/21 06:29:58;;;;;;;6.53;5.65;;;23.60;69.40;;;;;;5075641;28;20029;-27
2021/07/21 06:32:23;;;;;;;6.00;5.30;;;23.50;69.60;;;;;;5053906;28;20112;-31
2021/07/21 06:34:49;;;;;;;5.97;5.13;;;23.30;69.80;;;;;;5072210;28;20078;-28
2021/07/21 06:37:14;;;;;;;6.70;6.00;;;23.20;70.30;;;;;;5074978;28;20032;-29
2021/07/21 06:39:40;;;;;;;5.05;4.60;;;23.30;70.50;;;;;;5060646;28;20437;-29
2021/07/21 06:42:05;;;;;;;7.22;5.22;;;23.30;70.20;;;;;;5076647;28;20020;-28
2021/07/21 06:44:31;;;;;;;5.97;5.45;;;23.30;70.30;;;;;;5071688;28;20095;-36
2021/07/21 06:46:57;;;;;;;9.55;5.82;;;23.40;70.20;;;;;;5072447;28;20112;-25
2021/07/21 06:49:22;;;;;;;4.95;4.55;;;23.40;70.00;;;;;;5071691;28;20038;-27
2021/07/21 06:51:48;;;;;;;5.40;4.78;;;23.30;70.20;;;;;;5072125;28;20032;-26
2021/07/21 06:54:13;;;;;;;6.43;5.93;;;23.30;70.70;;;;;;5074198;28;20024;-28
2021/07/21 06:56:39;;;;;;;6.57;5.22;;;23.30;70.10;;;;;;5070619;28;20031;-31
2021/07/21 06:59:05;;;;;;;5.78;5.28;;;23.40;69.90;;;;;;5068734;28;20405;-29
2021/07/21 07:01:30;;;;;;;6.18;5.65;;;23.40;68.60;;;;;;5077575;28;20097;-32
2021/07/21 07:03:56;;;;;;;5.80;5.30;;;23.50;69.40;;;;;;5070982;28;20051;-32
2021/07/21 07:06:21;;;;;;;6.22;5.63;;;23.60;69.20;;;;;;5070809;28;20028;-28
2021/07/21 07:08:47;;;;;;;6.75;5.90;;;23.60;68.70;;;;;;5068003;28;20107;-33
2021/07/21 07:11:13;;;;;;;5.88;5.38;;;23.70;68.40;;;;;;5068579;28;20049;-29
2021/07/21 07:13:39;;;;;;;5.43;5.10;;;23.70;69.40;;;;;;5067655;28;20136;-27
2021/07/21 07:16:05;;;;;;;6.50;5.80;;;23.70;67.90;;;;;;5076841;28;20505;-30
2021/07/21 07:18:30;;;;;;;5.55;5.05;;;23.80;67.60;;;;;;5076490;28;20039;-28
2021/07/21 07:20:56;;;;;;;5.68;5.28;;;23.80;67.70;;;;;;5077667;28;20061;-27
2021/07/21 07:23:22;;;;;;;6.07;5.63;;;23.80;67.90;;;;;;5078934;28;20489;-32
2021/07/21 07:25:48;;;;;;;5.13;4.82;;;23.90;68.60;;;;;;5074872;28;20577;-30
2021/07/21 07:28:14;;;;;;;7.88;5.88;;;23.90;68.10;;;;;;5071354;28;20123;-32
2021/07/21 07:30:39;;;;;;;6.25;5.75;;;23.90;68.00;;;;;;5066266;28;20092;-30
2021/07/21 07:33:05;;;;;;;8.80;6.35;;;23.90;67.40;;;;;;5066923;28;20023;-35
2021/07/21 07:35:30;;;;;;;6.82;6.10;;;23.80;67.80;;;;;;5064778;28;20161;-35
2021/07/21 07:37:56;;;;;;;6.85;5.65;;;23.90;68.00;;;;;;5068303;28;20032;-30
2021/07/21 07:40:21;;;;;;;7.03;6.05;;;23.90;68.40;;;;;;5069165;28;20032;-36
2021/07/21 07:42:47;;;;;;;6.75;6.13;;;23.80;68.80;;;;;;5064705;28;20033;-34
2021/07/21 07:45:13;;;;;;;7.05;6.45;;;23.80;69.40;;;;;;5062999;28;20036;-34
2021/07/21 07:47:38;;;;;;;6.50;5.82;;;23.90;69.10;;;;;;5067341;28;20032;-33
2021/07/21 07:50:05;;;;;;;7.40;6.70;;;23.80;70.30;;;;;;5071970;28;20036;-31
2021/07/21 07:52:31;;;;;;;7.43;6.72;;;23.80;69.60;;;;;;5070057;28;20031;-31
2021/07/21 07:54:57;;;;;;;7.25;6.75;;;23.80;69.70;;;;;;5054596;28;20044;-29
2021/07/21 07:57:22;;;;;;;8.27;6.40;;;23.80;69.90;;;;;;5075020;28;20009;-35
2021/07/21 07:59:48;;;;;;;7.63;6.82;;;23.90;70.00;;;;;;5072549;28;20038;-31
2021/07/21 08:02:13;;;;;;;6.82;6.07;;;23.90;69.90;;;;;;5074089;28;20021;-34
2021/07/21 08:04:39;;;;;;;6.90;6.30;;;23.90;69.70;;;;;;5073973;28;20123;-30
2021/07/21 08:07:04;;;;;;;6.30;5.53;;;24.00;69.50;;;;;;5073292;28;20028;-36
2021/07/21 08:09:30;;;;;;;6.10;5.50;;;24.10;69.60;;;;;;5069873;28;20097;-32
2021/07/21 08:11:58;;;;;;;6.57;6.07;;;24.10;69.50;;;;;;5068855;28;20088;-36
2021/07/21 08:14:24;;;;;;;6.47;5.88;;;24.10;69.70;;;;;;5068625;28;20021;-30
2021/07/21 08:16:50;;;;;;;6.45;6.00;;;24.10;69.50;;;;;;5073194;28;20032;-28
2021/07/21 08:19:16;;;;;;;6.57;5.97;;;24.20;69.40;;;;;;5072707;28;20017;-35
2021/07/21 08:21:42;;;;;;;6.90;6.07;;;24.20;69.50;;;;;;5075754;28;20412;-28
2021/07/21 08:24:07;;;;;;;6.75;6.25;;;24.20;69.80;;;;;;5069919;28;20032;-35
2021/07/21 08:26:33;;;;;;;6.35;5.85;;;24.30;69.50;;;;;;5069025;28;20052;-29
2021/07/21 08:28:58;;;;;;;6.50;6.00;;;24.40;69.20;;;;;;5054398;28;20522;-37
2021/07/21 08:31:24;;;;;;;6.65;6.05;;;24.40;69.00;;;;;;5053006;28;20028;-27
2021/07/21 08:33:50;;;;;;;6.47;6.03;;;24.40;68.90;;;;;;5069990;28;20624;-33
2021/07/21 08:36:15;;;;;;;6.82;6.32;;;24.50;69.00;;;;;;5071327;28;20718;-28
2021/07/21 08:38:41;;;;;;;6.22;5.80;;;24.50;68.90;;;;;;5071685;28;20063;-37
2021/07/21 08:41:06;;;;;;;6.25;5.78;;;24.50;68.90;;;;;;5074620;28;20036;-30
2021/07/21 08:43:32;;;;;;;6.22;5.75;;;24.50;69.00;;;;;;5068702;28;20401;-34
2021/07/21 08:45:58;;;;;;;6.70;6.10;;;24.50;68.90;;;;;;5060449;28;20035;-34
2021/07/21 08:48:23;;;;;;;6.53;5.82;;;24.60;68.80;;;;;;5071419;28;20032;-27
2021/07/21 08:50:49;;;;;;;6.35;5.80;;;24.60;68.70;;;;;;5073167;28;20371;-33
2021/07/21 08:53:15;;;;;;;6.50;6.05;;;24.60;69.10;;;;;;5050784;28;20523;-31
2021/07/21 08:55:40;;;;;;;6.28;5.78;;;24.70;68.40;;;;;;5076589;28;20028;-31
2021/07/21 08:58:06;;;;;;;6.90;6.40;;;24.70;68.20;;;;;;5071366;28;20057;-30
2021/07/21 09:00:33;;;;;;;6.45;5.85;;;24.70;68.20;;;;;;5043918;28;20020;-26
2021/07/21 09:02:58;;;;;;;5.47;5.07;;;24.70;68.50;;;;;;5055825;28;20046;-29
2021/07/21 09:05:24;;;;;;;6.32;5.82;;;24.70;68.50;;;;;;5075223;28;20036;-30
2021/07/21 09:07:50;;;;;;;5.55;5.25;;;24.70;68.30;;;;;;5074945;28;20073;-29
2021/07/21 09:10:17;;;;;;;5.75;5.43;;;24.80;68.50;;;;;;5071899;28;20032;-27
2021/07/21 09:12:44;;;;;;;6.07;5.60;;;24.80;68.40;;;;;;5074468;28;20584;-36
2021/07/21 09:15:20;;;;;;;6.57;5.97;;;24.90;68.10;;;;;;5074287;28;20055;-31
2021/07/21 09:18:11;;;;;;;5.53;5.22;;;24.90;67.80;;;;;;5068223;28;20034;-30
2021/07/21 09:20:39;;;;;;;6.10;5.80;;;25.00;67.90;;;;;;5055272;28;20035;-34
2021/07/21 09:23:05;;;;;;;5.97;5.45;;;25.00;67.50;;;;;;5072172;28;20497;-29
2021/07/21 09:25:32;;;;;;;5.72;5.32;;;25.00;67.60;;;;;;5076422;28;20119;-29
2021/07/21 09:27:59;;;;;;;5.97;5.47;;;25.10;68.20;;;;;;5067144;28;20090;-29
2021/07/21 09:30:33;;;;;;;5.53;5.03;;;25.10;67.50;;;;;;5062616;28;20021;-28
2021/07/21 09:33:00;;;;;;;6.43;5.82;;;25.20;67.40;;;;;;5065563;28;20021;-32
2021/07/21 09:35:31;;;;;;;5.45;5.05;;;25.20;67.30;;;;;;5060958;28;20558;-27
2021/07/21 09:38:01;;;;;;;5.45;4.95;;;25.20;67.50;;;;;;5059991;28;20038;-28
2021/07/21 09:40:26;;;;;;;5.97;5.40;;;25.20;67.80;;;;;;5064290;28;20028;-31
2021/07/21 09:42:52;;;;;;;5.63;5.20;;;25.30;67.30;;;;;;5064187;28;20040;-27
2021/07/21 09:45:19;;;;;;;8.30;5.88;;;25.40;66.90;;;;;;5064172;28;20048;-29
2021/07/21 09:48:03;;;;;;;5.40;5.07;;;25.30;67.00;;;;;;5057844;28;20032;-37
2021/07/21 09:50:30;;;;;;;5.63;4.75;;;25.40;66.60;;;;;;5064715;28;20133;-28
2021/07/21 09:53:04;;;;;;;5.57;5.10;;;25.40;66.80;;;;;;5048647;28;20094;-34
2021/07/21 09:55:30;;;;;;;6.13;4.72;;;25.50;66.70;;;;;;5077569;28;20081;-23
2021/07/21 09:58:26;;;;;;;5.03;4.57;;;25.50;66.00;;;;;;5079724;28;20508;-26
2021/07/21 10:00:52;;;;;;;5.40;4.63;;;25.50;66.10;;;;;;5079649;28;20494;-28
2021/07/21 10:03:24;;;;;;;6.88;5.18;;;25.40;66.20;;;;;;5082624;28;20048;-27
2021/07/21 10:05:53;;;;;;;5.50;4.85;;;25.40;66.10;;;;;;5076143;28;20115;-31
2021/07/21 10:08:45;;;;;;;5.00;4.68;;;25.40;66.10;;;;;;5072696;28;20512;-24
2021/07/21 10:11:22;;;;;;;4.95;4.65;;;25.40;66.80;;;;;;5075869;28;20116;-28
2021/07/21 10:13:52;;;;;;;5.43;4.93;;;25.40;66.00;;;;;;5075313;28;20032;-27
2021/07/21 10:16:42;;;;;;;5.32;4.90;;;25.40;66.20;;;;;;5080131;28;20020;-27
2021/07/21 10:19:15;;;;;;;5.53;5.10;;;25.30;66.20;;;;;;5078578;28;20089;-32
2021/07/21 10:21:45;;;;;;;6.65;5.15;;;25.30;66.10;;;;;;5061477;28;20036;-25
2021/07/21 10:24:11;;;;;;;5.35;4.95;;;25.30;66.90;;;;;;5076255;28;20076;-27
2021/07/21 10:26:39;;;;;;;5.03;4.63;;;25.30;66.10;;;;;;5073985;28;20520;-29
2021/07/21 10:29:06;;;;;;;5.40;5.00;;;25.30;66.00;;;;;;5078331;28;20029;-25
2021/07/21 10:31:34;;;;;;;6.72;4.75;;;25.40;66.00;;;;;;5076940;28;20034;-28
2021/07/21 10:33:59;;;;;;;5.65;5.10;;;25.40;66.00;;;;;;5058466;28;20120;-35
2021/07/21 10:36:25;;;;;;;4.78;4.40;;;25.40;65.80;;;;;;5072960;28;20103;-25
2021/07/21 10:38:51;;;;;;;4.95;4.60;;;25.40;66.00;;;;;;5075896;28;20055;-28
2021/07/21 10:41:16;;;;;;;4.95;4.65;;;25.40;65.70;;;;;;5079263;28;20026;-28
2021/07/21 10:43:46;;;;;;;5.32;4.95;;;25.30;65.60;;;;;;5061857;28;20047;-29
2021/07/21 10:46:33;;;;;;;5.40;5.05;;;25.40;65.70;;;;;;5061358;28;20036;-29
2021/07/21 10:49:18;;;;;;;5.47;4.38;;;25.40;65.70;;;;;;5055103;28;20063;-28
2021/07/21 10:52:16;;;;;;;4.70;4.40;;;25.40;65.60;;;;;;5071430;28;20154;-29
2021/07/21 11:00:10;;;;;;;4.40;4.10;;;25.40;65.50;;;;;;5075221;28;20039;-30
2021/07/21 11:02:36;;;;;;;4.85;4.45;;;25.40;65.50;;;;;;5069046;28;20507;-27
2021/07/21 11:05:02;;;;;;;5.60;4.13;;;25.40;65.50;;;;;;5069685;28;20036;-34
2021/07/21 11:07:50;;;;;;;4.47;4.22;;;25.40;65.40;;;;;;5054049;28;20039;-29
2021/07/21 11:10:28;;;;;;;4.40;4.10;;;25.40;65.40;;;;;;5048921;28;20025;-29
2021/07/21 11:12:54;;;;;;;4.43;4.03;;;25.40;65.30;;;;;;5050521;28;20032;-31
2021/07/21 11:15:44;;;;;;;3.88;3.67;;;25.40;65.20;;;;;;5068246;28;20081;-29
2021/07/21 11:18:22;;;;;;;4.53;4.22;;;25.40;65.10;;;;;;5067588;28;20559;-23
2021/07/21 11:21:04;;;;;;;4.30;3.97;;;25.40;65.20;;;;;;5068908;28;20089;-26
2021/07/21 11:24:12;;;;;;;4.13;3.83;;;25.40;65.30;;;;;;5067897;28;20036;-29
2021/07/21 11:26:43;;;;;;;4.13;3.83;;;25.40;65.30;;;;;;4951926;28;20494;-27
2021/07/21 11:29:35;;;;;;;3.90;3.70;;;25.40;65.10;;;;;;4948970;28;20056;-27
2021/07/21 11:32:03;;;;;;;4.57;4.15;;;25.50;65.10;;;;;;4948170;28;20174;-31
2021/07/21 11:34:29;;;;;;;4.85;4.45;;;25.40;65.00;;;;;;4954741;28;20039;-28
2021/07/21 11:37:02;;;;;;;4.57;4.30;;;25.50;65.10;;;;;;4610382;28;10000231;-32
2021/07/21 11:39:30;;;;;;;4.05;3.85;;;25.50;65.20;;;;;;4951218;28;20037;-27
2021/07/21 11:41:57;;;;;;;4.78;4.47;;;25.40;65.10;;;;;;4956845;28;20058;-30
2021/07/21 11:44:37;;;;;;;4.47;4.18;;;25.40;64.90;;;;;;4950249;28;20098;-29
2021/07/21 11:47:13;;;;;;;4.03;3.72;;;25.50;65.00;;;;;;4953747;28;20035;-27
2021/07/21 11:49:41;;;;;;;4.35;4.15;;;25.40;66.10;;;;;;4954670;28;20038;-25
2021/07/21 11:52:07;;;;;;;4.30;4.00;;;25.40;64.90;;;;;;4949213;28;20073;-28
2021/07/21 11:54:34;;;;;;;3.75;3.55;;;25.50;64.90;;;;;;4949886;28;20051;-28
2021/07/21 11:57:01;;;;;;;4.50;4.20;;;25.50;64.70;;;;;;4996347;28;20127;-28
2021/07/21 11:59:37;;;;;;;4.32;3.92;;;25.50;64.70;;;;;;5071884;28;20032;-25
2021/07/21 12:02:06;;;;;;;4.32;4.03;;;25.50;64.90;;;;;;5070028;28;20040;-26
2021/07/21 12:04:31;;;;;;;3.92;3.72;;;25.50;64.60;;;;;;5070471;28;20481;-29
2021/07/21 12:06:57;;;;;;;3.97;3.78;;;25.60;64.80;;;;;;5071543;28;20652;-37
2021/07/21 12:09:29;;;;;;;4.07;3.78;;;25.50;66.30;;;;;;5075965;28;20028;-28
2021/07/21 12:12:00;;;;;;;4.93;4.18;;;25.50;66.10;;;;;;5069698;28;20052;-27
2021/07/21 12:14:26;;;;;;;4.47;4.07;;;25.60;65.30;;;;;;5074223;28;20031;-25
2021/07/21 12:16:52;;;;;;;4.63;4.40;;;25.60;64.90;;;;;;5070890;28;20021;-25
2021/07/21 12:19:23;;;;;;;4.30;4.10;;;25.60;64.80;;;;;;5073103;28;20130;-29
2021/07/21 12:21:49;;;;;;;4.63;4.05;;;25.60;64.70;;;;;;5068516;28;20029;-27
2021/07/21 12:24:14;;;;;;;3.20;3.00;;;25.60;64.80;;;;;;5035806;28;20050;-26
2021/07/21 12:26:41;;;;;;;3.97;3.75;;;25.60;64.80;;;;;;5072965;28;20032;-25
2021/07/21 12:29:07;;;;;;;3.63;3.42;;;25.60;64.50;;;;;;5069650;28;20032;-26
2021/07/21 12:31:33;;;;;;;3.80;3.50;;;25.60;64.20;;;;;;5069251;28;20383;-23
2021/07/21 12:34:18;;;;;;;4.10;3.85;;;25.60;64.40;;;;;;5077377;28;20500;-29
2021/07/21 12:36:47;;;;;;;3.90;3.60;;;25.60;64.40;;;;;;5076656;28;20122;-29
2021/07/21 12:39:14;;;;;;;4.45;4.15;;;25.60;63.90;;;;;;5071921;28;20089;-25
2021/07/21 12:41:41;;;;;;;3.97;3.38;;;25.60;64.30;;;;;;5073722;28;20715;-27
2021/07/21 12:44:16;;;;;;;4.47;4.05;;;25.60;64.00;;;;;;5075107;28;20040;-26
2021/07/21 12:46:43;;;;;;;4.10;3.90;;;25.60;64.00;;;;;;5069025;28;20024;-29
2021/07/21 12:49:09;;;;;;;4.22;3.92;;;25.60;64.00;;;;;;5074939;28;20144;-28
2021/07/21 12:51:36;;;;;;;4.10;3.80;;;25.60;64.30;;;;;;5039962;28;20112;-28
2021/07/21 12:54:02;;;;;;;3.22;2.97;;;25.60;64.20;;;;;;5034883;28;20031;-27
2021/07/21 12:56:27;;;;;;;3.25;3.15;;;25.70;64.40;;;;;;5067506;28;20032;-29
2021/07/21 12:59:09;;;;;;;3.92;3.72;;;25.70;64.90;;;;;;5080390;28;20036;-26